createdAt,value
2017-12-08T00:00:32.965Z,0
2017-12-08T00:01:54.337Z,0
2017-12-08T00:03:16.262Z,0
2017-12-08T00:04:37.889Z,0
2017-12-08T00:05:59.536Z,0
2017-12-08T00:07:21.721Z,0
2017-12-08T00:08:43.905Z,0
2017-12-08T00:10:05.575Z,0
2017-12-08T00:11:27.509Z,0
2017-12-08T00:12:49.145Z,0
2017-12-08T00:14:11.066Z,0
2017-12-08T00:15:32.452Z,0
2017-12-08T00:16:54.385Z,0
2017-12-08T00:18:15.762Z,0
2017-12-08T00:19:37.496Z,0
2017-12-08T00:20:58.869Z,0
2017-12-08T00:22:20.571Z,0
2017-12-08T00:23:42.225Z,0
2017-12-08T00:25:04.145Z,0
2017-12-08T00:26:25.796Z,0
2017-12-08T00:27:47.435Z,0
2017-12-08T00:29:08.906Z,0
2017-12-08T00:30:30.277Z,0
2017-12-08T00:31:52.081Z,0
2017-12-08T00:33:13.486Z,0
2017-12-08T00:34:35.405Z,0
2017-12-08T00:35:57.312Z,0
2017-12-08T00:37:19.008Z,0
2017-12-08T00:38:40.649Z,0
2017-12-08T00:40:02.938Z,0
2017-12-08T00:41:25.175Z,0
2017-12-08T00:42:46.827Z,0
2017-12-08T00:44:08.486Z,0
2017-12-08T00:45:30.162Z,0
2017-12-08T00:46:51.826Z,0
2017-12-08T00:48:13.243Z,0
2017-12-08T00:49:35.000Z,0
2017-12-08T00:50:56.482Z,0
2017-12-08T00:52:18.714Z,0
2017-12-08T00:53:40.438Z,0
2017-12-08T00:55:02.080Z,0
2017-12-08T00:56:23.996Z,0
2017-12-08T00:57:45.901Z,0
2017-12-08T00:59:07.542Z,0
2017-12-08T01:00:29.786Z,0
2017-12-08T01:01:51.412Z,0
2017-12-08T01:03:13.153Z,0
2017-12-08T01:04:35.343Z,0
2017-12-08T01:05:56.993Z,0
2017-12-08T01:07:19.016Z,0
2017-12-08T01:08:40.394Z,0
2017-12-08T01:10:02.026Z,0
2017-12-08T01:11:24.214Z,0
2017-12-08T01:12:45.422Z,0
2017-12-08T01:14:07.325Z,0
2017-12-08T01:15:28.965Z,0
2017-12-08T01:16:50.594Z,0
2017-12-08T01:18:12.296Z,0
2017-12-08T01:19:34.201Z,0
2017-12-08T01:20:55.414Z,0
2017-12-08T01:22:17.581Z,0
2017-12-08T01:23:38.697Z,0
2017-12-08T01:25:00.874Z,0
2017-12-08T01:26:22.004Z,0
2017-12-08T01:27:43.974Z,0
2017-12-08T01:29:05.627Z,0
2017-12-08T01:30:27.265Z,0
2017-12-08T01:31:49.521Z,0
2017-12-08T01:33:11.177Z,0
2017-12-08T01:34:33.100Z,0
2017-12-08T01:35:55.441Z,0
2017-12-08T01:37:17.097Z,0
2017-12-08T01:38:38.767Z,0
2017-12-08T01:40:01.212Z,0
2017-12-08T01:41:22.897Z,0
2017-12-08T01:42:44.276Z,0
2017-12-08T01:44:06.191Z,0
2017-12-08T01:45:28.127Z,0
2017-12-08T01:46:50.162Z,0
2017-12-08T01:48:11.533Z,0
2017-12-08T01:49:33.755Z,0
2017-12-08T01:50:55.180Z,0
2017-12-08T01:52:16.876Z,0
2017-12-08T01:53:38.951Z,0
2017-12-08T01:55:01.058Z,0
2017-12-08T01:56:22.867Z,0
2017-12-08T01:57:44.845Z,0
2017-12-08T01:59:06.618Z,0
2017-12-08T02:00:28.371Z,0
2017-12-08T02:01:50.389Z,0
2017-12-08T02:03:11.917Z,0
2017-12-08T02:04:33.767Z,0
2017-12-08T02:05:55.491Z,0
2017-12-08T02:07:17.199Z,0
2017-12-08T02:08:38.916Z,0
2017-12-08T02:10:00.621Z,0
2017-12-08T02:11:22.857Z,0
2017-12-08T02:12:44.582Z,0
2017-12-08T02:14:06.026Z,0
2017-12-08T02:15:27.737Z,0
2017-12-08T02:16:50.090Z,0
2017-12-08T02:18:12.167Z,0
2017-12-08T02:19:33.880Z,0
2017-12-08T02:20:55.047Z,0
2017-12-08T02:22:17.097Z,0
2017-12-08T02:23:38.546Z,0
2017-12-08T02:24:59.986Z,0
2017-12-08T02:26:21.699Z,0
2017-12-08T02:27:43.555Z,0
2017-12-08T02:29:05.785Z,0
2017-12-08T02:30:26.958Z,0
2017-12-08T02:31:48.696Z,0
2017-12-08T02:33:10.439Z,0
2017-12-08T02:34:31.887Z,0
2017-12-08T02:35:53.448Z,0
2017-12-08T02:37:15.211Z,0
2017-12-08T02:38:36.942Z,0
2017-12-08T02:39:58.668Z,0
2017-12-08T02:41:20.449Z,0
2017-12-08T02:42:42.156Z,0
2017-12-08T02:44:04.116Z,0
2017-12-08T02:45:26.490Z,0
2017-12-08T02:46:48.588Z,0
2017-12-08T02:48:10.566Z,0
2017-12-08T02:49:32.258Z,0
2017-12-08T02:50:53.952Z,0
2017-12-08T02:52:15.662Z,0
2017-12-08T02:53:37.087Z,0
2017-12-08T02:54:59.066Z,0
2017-12-08T02:56:21.034Z,0
2017-12-08T02:57:43.036Z,0
2017-12-08T02:59:04.996Z,0
2017-12-08T03:00:26.974Z,0
2017-12-08T03:01:48.987Z,0
2017-12-08T03:03:10.446Z,0
2017-12-08T03:04:32.255Z,0
2017-12-08T03:05:54.326Z,0
2017-12-08T03:07:15.827Z,0
2017-12-08T03:08:37.527Z,0
2017-12-08T03:09:58.935Z,0
2017-12-08T03:11:20.906Z,0
2017-12-08T03:12:42.104Z,0
2017-12-08T03:14:03.799Z,0
2017-12-08T03:15:25.375Z,0
2017-12-08T03:16:47.084Z,0
2017-12-08T03:18:08.567Z,0
2017-12-08T03:19:30.316Z,0
2017-12-08T03:20:52.285Z,0
2017-12-08T03:22:14.441Z,0
2017-12-08T03:23:36.766Z,0
2017-12-08T03:24:58.714Z,0
2017-12-08T03:26:20.674Z,0
2017-12-08T03:27:42.376Z,0
2017-12-08T03:29:04.603Z,0
2017-12-08T03:30:26.318Z,0
2017-12-08T03:31:47.739Z,0
2017-12-08T03:33:09.169Z,0
2017-12-08T03:34:30.969Z,0
2017-12-08T03:35:52.684Z,0
2017-12-08T03:37:14.916Z,0
2017-12-08T03:38:36.363Z,0
2017-12-08T03:39:58.055Z,0
2017-12-08T03:41:20.018Z,0
2017-12-08T03:42:41.712Z,0
2017-12-08T03:44:03.167Z,0
2017-12-08T03:45:24.626Z,0
2017-12-08T03:46:46.436Z,0
2017-12-08T03:48:08.404Z,0
2017-12-08T03:49:30.148Z,0
2017-12-08T03:50:51.846Z,0
2017-12-08T03:52:13.589Z,0
2017-12-08T03:53:35.299Z,0
2017-12-08T03:54:56.995Z,0
2017-12-08T03:56:18.778Z,0
2017-12-08T03:57:40.210Z,0
2017-12-08T03:59:01.918Z,0
2017-12-08T04:00:23.876Z,0
2017-12-08T04:01:46.115Z,0
2017-12-08T04:03:07.305Z,0
2017-12-08T04:04:28.744Z,0
2017-12-08T04:05:50.469Z,0
2017-12-08T04:07:12.426Z,0
2017-12-08T04:08:33.928Z,0
2017-12-08T04:09:55.630Z,0
2017-12-08T04:11:17.646Z,0
2017-12-08T04:12:39.593Z,0
2017-12-08T04:14:00.804Z,0
2017-12-08T04:15:22.563Z,0
2017-12-08T04:16:44.608Z,0
2017-12-08T04:18:06.782Z,0
2017-12-08T04:19:28.757Z,0
2017-12-08T04:20:50.738Z,0
2017-12-08T04:22:12.459Z,0
2017-12-08T04:23:34.231Z,0
2017-12-08T04:24:56.038Z,0
2017-12-08T04:26:17.529Z,0
2017-12-08T04:27:39.326Z,0
2017-12-08T04:29:01.348Z,0
2017-12-08T04:30:22.796Z,0
2017-12-08T04:31:43.956Z,0
2017-12-08T04:33:05.917Z,0
2017-12-08T04:34:27.886Z,0
2017-12-08T04:35:49.573Z,0
2017-12-08T04:37:11.537Z,0
2017-12-08T04:38:32.696Z,0
2017-12-08T04:39:54.264Z,0
2017-12-08T04:41:16.252Z,0
2017-12-08T04:42:37.655Z,0
2017-12-08T04:43:59.359Z,0
2017-12-08T04:45:21.502Z,0
2017-12-08T04:46:43.476Z,0
2017-12-08T04:48:05.472Z,0
2017-12-08T04:49:27.066Z,0
2017-12-08T04:50:48.786Z,0
2017-12-08T04:52:10.859Z,0
2017-12-08T04:53:32.332Z,0
2017-12-08T04:54:54.082Z,0
2017-12-08T04:56:16.367Z,0
2017-12-08T04:57:38.323Z,0
2017-12-08T04:59:00.286Z,0
2017-12-08T05:00:21.985Z,0
2017-12-08T05:01:43.414Z,0
2017-12-08T05:03:04.912Z,0
2017-12-08T05:04:26.349Z,0
2017-12-08T05:05:47.783Z,0
2017-12-08T05:07:09.528Z,0
2017-12-08T05:08:30.969Z,0
2017-12-08T05:09:52.496Z,0
2017-12-08T05:11:14.475Z,0
2017-12-08T05:12:36.714Z,0
2017-12-08T05:13:58.674Z,0
2017-12-08T05:15:19.854Z,0
2017-12-08T05:16:41.864Z,0
2017-12-08T05:18:03.665Z,0
2017-12-08T05:19:25.419Z,0
2017-12-08T05:20:47.266Z,0
2017-12-08T05:22:08.962Z,0
2017-12-08T05:23:30.935Z,0
2017-12-08T05:24:52.645Z,0
2017-12-08T05:26:14.364Z,0
2017-12-08T05:27:36.511Z,0
2017-12-08T05:28:58.280Z,0
2017-12-08T05:30:19.838Z,0
2017-12-08T05:31:41.264Z,0
2017-12-08T05:33:03.076Z,0
2017-12-08T05:34:25.034Z,0
2017-12-08T05:35:47.055Z,0
2017-12-08T05:37:09.301Z,0
2017-12-08T05:38:30.743Z,0
2017-12-08T05:39:52.704Z,0
2017-12-08T05:41:14.720Z,0
2017-12-08T05:42:36.162Z,0
2017-12-08T05:43:57.865Z,0
2017-12-08T05:45:19.562Z,0
2017-12-08T05:46:41.538Z,0
2017-12-08T05:48:03.884Z,0
2017-12-08T05:49:25.865Z,0
2017-12-08T05:50:48.094Z,0
2017-12-08T05:52:09.525Z,0
2017-12-08T05:53:31.254Z,0
2017-12-08T05:54:53.233Z,0
2017-12-08T05:56:15.224Z,0
2017-12-08T05:57:37.044Z,0
2017-12-08T05:58:58.464Z,0
2017-12-08T06:00:20.553Z,0
2017-12-08T06:01:42.563Z,0
2017-12-08T06:03:03.834Z,0
2017-12-08T06:04:25.652Z,0
2017-12-08T06:05:47.103Z,0
2017-12-08T06:07:08.823Z,0
2017-12-08T06:08:30.528Z,0
2017-12-08T06:09:52.765Z,0
2017-12-08T06:11:14.744Z,0
2017-12-08T06:12:36.809Z,0
2017-12-08T06:13:59.062Z,0
2017-12-08T06:15:21.037Z,0
2017-12-08T06:16:43.056Z,0
2017-12-08T06:18:05.032Z,0
2017-12-08T06:19:26.995Z,0
2017-12-08T06:20:48.465Z,0
2017-12-08T06:22:10.684Z,0
2017-12-08T06:23:31.915Z,0
2017-12-08T06:24:53.607Z,0
2017-12-08T06:26:15.308Z,0
2017-12-08T06:27:37.265Z,0
2017-12-08T06:28:59.519Z,0
2017-12-08T06:30:21.484Z,0
2017-12-08T06:31:42.931Z,0
2017-12-08T06:33:04.644Z,0
2017-12-08T06:34:26.616Z,0
2017-12-08T06:35:48.045Z,0
2017-12-08T06:37:10.305Z,0
2017-12-08T06:38:32.334Z,0
2017-12-08T06:39:53.771Z,0
2017-12-08T06:41:15.753Z,0
2017-12-08T06:42:37.248Z,0
2017-12-08T06:43:59.002Z,0
2017-12-08T06:45:20.564Z,0
2017-12-08T06:46:42.096Z,0
2017-12-08T06:48:04.155Z,4
2017-12-08T06:49:25.946Z,4
2017-12-08T06:50:48.304Z,4
2017-12-08T06:52:10.256Z,4
2017-12-08T06:53:31.680Z,4
2017-12-08T06:54:53.394Z,4
2017-12-08T06:56:15.369Z,4
2017-12-08T06:57:37.406Z,8
2017-12-08T06:58:59.165Z,8
2017-12-08T07:00:20.855Z,12
2017-12-08T07:01:42.634Z,16
2017-12-08T07:03:04.075Z,20
2017-12-08T07:04:26.355Z,24
2017-12-08T07:05:48.127Z,32
2017-12-08T07:07:10.365Z,40
2017-12-08T07:08:32.070Z,60
2017-12-08T07:09:53.823Z,56
2017-12-08T07:11:15.620Z,68
2017-12-08T07:12:37.611Z,84
2017-12-08T07:13:58.776Z,92
2017-12-08T07:15:20.586Z,104
2017-12-08T07:16:42.560Z,116
2017-12-08T07:18:04.845Z,136
2017-12-08T07:19:26.346Z,140
2017-12-08T07:20:48.064Z,128
2017-12-08T07:22:10.076Z,84
2017-12-08T07:23:31.504Z,80
2017-12-08T07:24:53.785Z,60
2017-12-08T07:26:14.966Z,100
2017-12-08T07:27:36.386Z,160
2017-12-08T07:28:58.426Z,176
2017-12-08T07:30:20.669Z,208
2017-12-08T07:31:42.165Z,272
2017-12-08T07:33:04.270Z,324
2017-12-08T07:34:26.250Z,300
2017-12-08T07:35:48.284Z,300
2017-12-08T07:37:10.274Z,368
2017-12-08T07:38:31.745Z,388
2017-12-08T07:39:53.431Z,480
2017-12-08T07:41:15.401Z,456
2017-12-08T07:42:37.706Z,524
2017-12-08T07:43:58.874Z,592
2017-12-08T07:45:20.472Z,648
2017-12-08T07:46:41.913Z,680
2017-12-08T07:48:03.477Z,812
2017-12-08T07:49:25.444Z,952
2017-12-08T07:50:47.685Z,1120
2017-12-08T07:52:09.963Z,1288
2017-12-08T07:53:31.656Z,1260
2017-12-08T07:54:53.355Z,1144
2017-12-08T07:56:15.585Z,1184
2017-12-08T07:57:37.665Z,1196
2017-12-08T07:58:59.401Z,1284
2017-12-08T08:00:21.398Z,1484
2017-12-08T08:01:43.105Z,1472
2017-12-08T08:03:05.075Z,1424
2017-12-08T08:04:26.569Z,1456
2017-12-08T08:05:48.268Z,1488
2017-12-08T08:07:10.226Z,1596
2017-12-08T08:08:32.346Z,1612
2017-12-08T08:09:54.065Z,1524
2017-12-08T08:11:16.049Z,1460
2017-12-08T08:12:37.516Z,1492
2017-12-08T08:13:59.199Z,1452
2017-12-08T08:15:20.916Z,1452
2017-12-08T08:16:42.358Z,1488
2017-12-08T08:18:04.342Z,1572
2017-12-08T08:19:26.057Z,1380
2017-12-08T08:20:47.802Z,1260
2017-12-08T08:22:09.825Z,1020
2017-12-08T08:23:31.536Z,700
2017-12-08T08:24:52.992Z,704
2017-12-08T08:26:14.655Z,948
2017-12-08T08:27:36.893Z,876
2017-12-08T08:28:58.364Z,936
2017-12-08T08:30:20.107Z,928
2017-12-08T08:31:41.553Z,1132
2017-12-08T08:33:02.744Z,1236
2017-12-08T08:34:24.519Z,1276
2017-12-08T08:35:46.506Z,1016
2017-12-08T08:37:08.475Z,1180
2017-12-08T08:38:30.724Z,1220
2017-12-08T08:39:52.675Z,1292
2017-12-08T08:41:14.391Z,1172
2017-12-08T08:42:35.846Z,1184
2017-12-08T08:43:57.816Z,1328
2017-12-08T08:45:19.850Z,1396
2017-12-08T08:46:41.027Z,1468
2017-12-08T08:48:02.739Z,1560
2017-12-08T08:49:24.704Z,1808
2017-12-08T08:50:46.815Z,2060
2017-12-08T08:52:08.256Z,2092
2017-12-08T08:53:29.687Z,2132
2017-12-08T08:54:51.729Z,2340
2017-12-08T08:56:13.583Z,2512
2017-12-08T08:57:35.057Z,2656
2017-12-08T08:58:57.024Z,2300
2017-12-08T09:00:18.796Z,1988
2017-12-08T09:01:41.034Z,2460
2017-12-08T09:03:02.521Z,2816
2017-12-08T09:04:23.971Z,3544
2017-12-08T09:05:45.778Z,3164
2017-12-08T09:07:07.756Z,4008
2017-12-08T09:08:29.495Z,3932
2017-12-08T09:09:51.645Z,3488
2017-12-08T09:11:13.353Z,3752
2017-12-08T09:12:35.106Z,3696
2017-12-08T09:13:57.168Z,3120
2017-12-08T09:15:18.926Z,2708
2017-12-08T09:16:40.889Z,3652
2017-12-08T09:18:02.317Z,3992
2017-12-08T09:19:24.314Z,4812
2017-12-08T09:20:46.057Z,4492
2017-12-08T09:22:08.135Z,4640
2017-12-08T09:23:29.836Z,4820
2017-12-08T09:24:51.956Z,6644
2017-12-08T09:26:13.654Z,8968
2017-12-08T09:27:35.376Z,6492
2017-12-08T09:28:57.225Z,5408
2017-12-08T09:30:19.298Z,5984
2017-12-08T09:31:41.401Z,6692
2017-12-08T09:33:03.255Z,5232
2017-12-08T09:34:25.436Z,7048
2017-12-08T09:35:47.555Z,8268
2017-12-08T09:37:09.526Z,8432
2017-12-08T09:38:31.254Z,8020
2017-12-08T09:39:53.546Z,8324
2017-12-08T09:41:15.613Z,8736
2017-12-08T09:42:37.335Z,9000
2017-12-08T09:43:59.034Z,8016
2017-12-08T09:45:20.882Z,7476
2017-12-08T09:46:42.317Z,6492
2017-12-08T09:48:04.646Z,6628
2017-12-08T09:49:26.615Z,6024
2017-12-08T09:50:48.855Z,6836
2017-12-08T09:52:10.868Z,7172
2017-12-08T09:53:32.867Z,8728
2017-12-08T09:54:54.281Z,6344
2017-12-08T09:56:16.266Z,5588
2017-12-08T09:57:38.244Z,4740
2017-12-08T09:58:59.998Z,4452
2017-12-08T10:00:21.717Z,3832
2017-12-08T10:01:43.737Z,4384
2017-12-08T10:03:05.802Z,3932
2017-12-08T10:04:27.907Z,4072
2017-12-08T10:05:49.655Z,3580
2017-12-08T10:07:11.646Z,3432
2017-12-08T10:08:33.754Z,3984
2017-12-08T10:09:55.820Z,3464
2017-12-08T10:11:17.675Z,3804
2017-12-08T10:12:39.607Z,4784
2017-12-08T10:14:01.949Z,3256
2017-12-08T10:15:24.061Z,2384
2017-12-08T10:16:45.777Z,2428
2017-12-08T10:18:07.764Z,2140
2017-12-08T10:19:29.518Z,2212
2017-12-08T10:20:51.256Z,2328
2017-12-08T10:22:13.385Z,3604
2017-12-08T10:23:35.617Z,3812
2017-12-08T10:24:57.860Z,3436
2017-12-08T10:26:20.097Z,3392
2017-12-08T10:27:41.815Z,4440
2017-12-08T10:29:02.985Z,5668
2017-12-08T10:30:24.962Z,6012
2017-12-08T10:31:47.235Z,6228
2017-12-08T10:33:08.955Z,5944
2017-12-08T10:34:30.769Z,5908
2017-12-08T10:35:52.752Z,6504
2017-12-08T10:37:14.748Z,6540
2017-12-08T10:38:37.024Z,6288
2017-12-08T10:39:59.074Z,6012
2017-12-08T10:41:21.418Z,5152
2017-12-08T10:42:43.124Z,4308
2017-12-08T10:44:04.619Z,3028
2017-12-08T10:45:26.870Z,2852
2017-12-08T10:46:48.869Z,3728
2017-12-08T10:48:10.897Z,3836
2017-12-08T10:49:32.604Z,3672
2017-12-08T10:50:54.864Z,4020
2017-12-08T10:52:16.834Z,3220
2017-12-08T10:53:38.864Z,3468
2017-12-08T10:55:00.732Z,3176
2017-12-08T10:56:22.545Z,2708
2017-12-08T10:57:44.273Z,3052
2017-12-08T10:59:05.989Z,3004
2017-12-08T11:00:27.994Z,3420
2017-12-08T11:01:50.374Z,2620
2017-12-08T11:03:12.406Z,2232
2017-12-08T11:04:33.916Z,2648
2017-12-08T11:05:56.194Z,2448
2017-12-08T11:07:18.417Z,2592
2017-12-08T11:08:40.695Z,2316
2017-12-08T11:10:02.514Z,1940
2017-12-08T11:11:24.752Z,2224
2017-12-08T11:12:46.719Z,2228
2017-12-08T11:14:08.752Z,2276
2017-12-08T11:15:30.465Z,2204
2017-12-08T11:16:52.459Z,1892
2017-12-08T11:18:14.214Z,2064
2017-12-08T11:19:35.932Z,1944
2017-12-08T11:20:57.904Z,1676
2017-12-08T11:22:19.874Z,1692
2017-12-08T11:23:42.235Z,1636
2017-12-08T11:25:03.675Z,1736
2017-12-08T11:26:25.769Z,1800
2017-12-08T11:27:47.529Z,1952
2017-12-08T11:29:09.755Z,1652
2017-12-08T11:30:31.753Z,1672
2017-12-08T11:31:53.465Z,1828
2017-12-08T11:33:15.422Z,1752
2017-12-08T11:34:37.124Z,1568
2017-12-08T11:35:58.546Z,1624
2017-12-08T11:37:20.034Z,1648
2017-12-08T11:38:41.466Z,1664
2017-12-08T11:40:03.548Z,1800
2017-12-08T11:41:25.806Z,1820
2017-12-08T11:42:47.825Z,1996
2017-12-08T11:44:09.822Z,1804
2017-12-08T11:45:31.534Z,1868
2017-12-08T11:46:53.522Z,2056
2017-12-08T11:48:15.234Z,2192
2017-12-08T11:49:36.948Z,2048
2017-12-08T11:50:58.915Z,2040
2017-12-08T11:52:20.895Z,1956
2017-12-08T11:53:42.880Z,1928
2017-12-08T11:55:04.866Z,1936
2017-12-08T11:56:26.343Z,2004
2017-12-08T11:57:48.335Z,2124
2017-12-08T11:59:10.636Z,1952
2017-12-08T12:00:32.499Z,2080
2017-12-08T12:01:54.767Z,2020
2017-12-08T12:03:16.467Z,1908
2017-12-08T12:04:37.903Z,1804
2017-12-08T12:05:59.624Z,1804
2017-12-08T12:07:21.346Z,1656
2017-12-08T12:08:43.647Z,1564
2017-12-08T12:10:05.670Z,1644
2017-12-08T12:11:27.972Z,1696
2017-12-08T12:12:49.675Z,1832
2017-12-08T12:14:11.375Z,1896
2017-12-08T12:15:32.863Z,1828
2017-12-08T12:16:54.604Z,1624
2017-12-08T12:18:15.874Z,1476
2017-12-08T12:19:37.860Z,1612
2017-12-08T12:20:59.831Z,1528
2017-12-08T12:22:21.548Z,1540
2017-12-08T12:23:43.549Z,1480
2017-12-08T12:25:05.280Z,1504
2017-12-08T12:26:27.244Z,1632
2017-12-08T12:27:49.244Z,1468
2017-12-08T12:29:10.817Z,1420
2017-12-08T12:30:32.437Z,1464
2017-12-08T12:31:54.450Z,1300
2017-12-08T12:33:15.912Z,1664
2017-12-08T12:34:37.103Z,1584
2017-12-08T12:35:59.126Z,1624
2017-12-08T12:37:21.456Z,1592
2017-12-08T12:38:43.170Z,1860
2017-12-08T12:40:04.945Z,1708
2017-12-08T12:41:26.386Z,2044
2017-12-08T12:42:48.625Z,2120
2017-12-08T12:44:10.595Z,2160
2017-12-08T12:45:32.135Z,2000
2017-12-08T12:46:54.434Z,2420
2017-12-08T12:48:16.405Z,2768
2017-12-08T12:49:38.136Z,2416
2017-12-08T12:51:00.392Z,2888
2017-12-08T12:52:21.824Z,3304
2017-12-08T12:53:43.822Z,3436
2017-12-08T12:55:05.798Z,3416
2017-12-08T12:56:27.761Z,3476
2017-12-08T12:57:49.787Z,3464
2017-12-08T12:59:12.036Z,3456
2017-12-08T13:00:34.067Z,3420
2017-12-08T13:01:55.790Z,3276
2017-12-08T13:03:17.293Z,2956
2017-12-08T13:04:39.615Z,3040
2017-12-08T13:06:01.060Z,3028
2017-12-08T13:07:23.095Z,2816
2017-12-08T13:08:44.814Z,2572
2017-12-08T13:10:06.920Z,2336
2017-12-08T13:11:29.085Z,2236
2017-12-08T13:12:51.364Z,2128
2017-12-08T13:14:13.406Z,2156
2017-12-08T13:15:35.700Z,2188
2017-12-08T13:16:57.414Z,1992
2017-12-08T13:18:19.768Z,1624
2017-12-08T13:19:41.499Z,1500
2017-12-08T13:21:03.337Z,1568
2017-12-08T13:22:25.584Z,1676
2017-12-08T13:23:47.730Z,1780
2017-12-08T13:25:09.777Z,1796
2017-12-08T13:26:32.048Z,1692
2017-12-08T13:27:54.148Z,1588
2017-12-08T13:29:15.879Z,1248
2017-12-08T13:30:37.622Z,892
2017-12-08T13:31:59.365Z,744
2017-12-08T13:33:21.108Z,728
2017-12-08T13:34:43.241Z,696
2017-12-08T13:36:04.976Z,596
2017-12-08T13:37:26.715Z,452
2017-12-08T13:38:47.898Z,404
2017-12-08T13:40:09.945Z,436
2017-12-08T13:41:32.266Z,404
2017-12-08T13:42:54.234Z,392
2017-12-08T13:44:16.227Z,368
2017-12-08T13:45:38.038Z,312
2017-12-08T13:47:00.122Z,328
2017-12-08T13:48:22.096Z,368
2017-12-08T13:49:43.798Z,432
2017-12-08T13:51:06.065Z,468
2017-12-08T13:52:28.377Z,444
2017-12-08T13:53:50.357Z,476
2017-12-08T13:55:12.389Z,504
2017-12-08T13:56:34.119Z,644
2017-12-08T13:57:56.075Z,624
2017-12-08T13:59:18.070Z,492
2017-12-08T14:00:40.158Z,388
2017-12-08T14:02:02.138Z,288
2017-12-08T14:03:24.281Z,244
2017-12-08T14:04:46.265Z,260
2017-12-08T14:06:08.263Z,356
2017-12-08T14:07:30.252Z,448
2017-12-08T14:08:52.788Z,504
2017-12-08T14:10:14.504Z,560
2017-12-08T14:11:36.329Z,624
2017-12-08T14:12:58.645Z,672
2017-12-08T14:14:20.666Z,732
2017-12-08T14:15:42.240Z,776
2017-12-08T14:17:03.753Z,800
2017-12-08T14:18:25.238Z,720
2017-12-08T14:19:47.365Z,768
2017-12-08T14:21:09.159Z,812
2017-12-08T14:22:30.919Z,800
2017-12-08T14:23:52.925Z,796
2017-12-08T14:25:15.185Z,764
2017-12-08T14:26:37.155Z,724
2017-12-08T14:27:58.894Z,680
2017-12-08T14:29:20.942Z,636
2017-12-08T14:30:42.993Z,600
2017-12-08T14:32:05.018Z,572
2017-12-08T14:33:26.997Z,548
2017-12-08T14:34:49.168Z,524
2017-12-08T14:36:11.155Z,508
2017-12-08T14:37:33.166Z,496
2017-12-08T14:38:54.884Z,476
2017-12-08T14:40:16.864Z,472
2017-12-08T14:41:38.836Z,468
2017-12-08T14:43:00.811Z,464
2017-12-08T14:44:22.849Z,468
2017-12-08T14:45:44.849Z,464
2017-12-08T14:47:06.612Z,460
2017-12-08T14:48:28.622Z,452
2017-12-08T14:49:50.977Z,436
2017-12-08T14:51:13.250Z,424
2017-12-08T14:52:34.985Z,408
2017-12-08T14:53:56.747Z,384
2017-12-08T14:55:19.037Z,364
2017-12-08T14:56:41.174Z,344
2017-12-08T14:58:03.175Z,324
2017-12-08T14:59:25.435Z,308
2017-12-08T15:00:47.449Z,284
2017-12-08T15:02:09.178Z,264
2017-12-08T15:03:31.175Z,236
2017-12-08T15:04:53.314Z,212
2017-12-08T15:06:14.896Z,188
2017-12-08T15:07:37.283Z,168
2017-12-08T15:08:59.301Z,148
2017-12-08T15:10:21.411Z,132
2017-12-08T15:11:43.469Z,120
2017-12-08T15:13:05.824Z,108
2017-12-08T15:14:28.228Z,92
2017-12-08T15:15:49.949Z,84
2017-12-08T15:17:12.184Z,72
2017-12-08T15:18:34.558Z,60
2017-12-08T15:19:56.003Z,56
2017-12-08T15:21:18.098Z,44
2017-12-08T15:22:40.097Z,40
2017-12-08T15:24:02.464Z,32
2017-12-08T15:25:24.725Z,28
2017-12-08T15:26:46.696Z,24
2017-12-08T15:28:08.915Z,20
2017-12-08T15:29:30.965Z,16
2017-12-08T15:30:52.694Z,16
2017-12-08T15:32:14.950Z,12
2017-12-08T15:33:36.945Z,8
2017-12-08T15:34:59.307Z,8
2017-12-08T15:36:21.285Z,8
2017-12-08T15:37:43.575Z,4
2017-12-08T15:39:05.851Z,4
2017-12-08T15:40:27.606Z,4
2017-12-08T15:41:49.629Z,4
2017-12-08T15:43:11.980Z,4
2017-12-08T15:44:33.695Z,0
2017-12-08T15:45:55.777Z,4
2017-12-08T15:47:17.584Z,0
2017-12-08T15:48:39.300Z,0
2017-12-08T15:50:01.576Z,0
2017-12-08T15:51:23.631Z,0
2017-12-08T15:52:45.607Z,0
2017-12-08T15:54:07.337Z,0
2017-12-08T15:55:29.634Z,0
2017-12-08T15:56:51.895Z,0
2017-12-08T15:58:13.606Z,0
2017-12-08T15:59:35.356Z,0
2017-12-08T16:00:57.435Z,0
2017-12-08T16:02:19.425Z,0
2017-12-08T16:03:41.433Z,0
2017-12-08T16:05:03.716Z,0
2017-12-08T16:06:25.987Z,0
2017-12-08T16:07:47.450Z,0
2017-12-08T16:09:09.712Z,0
2017-12-08T16:10:32.063Z,8
2017-12-08T16:11:53.595Z,0
2017-12-08T16:13:16.016Z,0
2017-12-08T16:14:38.405Z,0
2017-12-08T16:16:00.130Z,0
2017-12-08T16:17:22.126Z,0
2017-12-08T16:18:43.867Z,0
2017-12-08T16:20:06.148Z,0
2017-12-08T16:21:27.845Z,0
2017-12-08T16:22:50.120Z,0
2017-12-08T16:24:11.827Z,0
2017-12-08T16:25:33.817Z,0
2017-12-08T16:26:55.826Z,0
2017-12-08T16:28:17.800Z,0
2017-12-08T16:29:39.546Z,0
2017-12-08T16:31:01.277Z,0
2017-12-08T16:32:23.044Z,0
2017-12-08T16:33:45.028Z,0
2017-12-08T16:35:06.465Z,0
2017-12-08T16:36:28.821Z,0
2017-12-08T16:37:51.132Z,0
2017-12-08T16:39:13.425Z,0
2017-12-08T16:40:35.146Z,0
2017-12-08T16:41:57.158Z,0
2017-12-08T16:43:19.002Z,0
2017-12-08T16:44:41.336Z,0
2017-12-08T16:46:03.594Z,0
2017-12-08T16:47:26.147Z,0
2017-12-08T16:48:48.128Z,0
2017-12-08T16:50:10.386Z,0
2017-12-08T16:51:32.535Z,0
2017-12-08T16:52:54.515Z,0
2017-12-08T16:54:16.438Z,0
2017-12-08T16:55:38.415Z,0
2017-12-08T16:57:00.964Z,0
2017-12-08T16:58:23.123Z,0
2017-12-08T16:59:45.434Z,0
2017-12-08T17:01:07.156Z,0
2017-12-08T17:02:29.188Z,0
2017-12-08T17:03:50.895Z,0
2017-12-08T17:05:12.392Z,0
2017-12-08T17:06:34.385Z,0
2017-12-08T17:07:56.099Z,0
2017-12-08T17:09:18.072Z,0
2017-12-08T17:10:40.378Z,0
2017-12-08T17:12:01.866Z,0
2017-12-08T17:13:23.592Z,0
2017-12-08T17:14:45.849Z,0
2017-12-08T17:16:07.561Z,0
2017-12-08T17:17:29.564Z,0
2017-12-08T17:18:51.817Z,0
2017-12-08T17:20:14.067Z,0
2017-12-08T17:21:36.337Z,0
2017-12-08T17:22:58.739Z,0
2017-12-08T17:24:20.822Z,0
2017-12-08T17:25:42.816Z,0
2017-12-08T17:27:05.325Z,0
2017-12-08T17:28:27.576Z,0
2017-12-08T17:29:49.705Z,0
2017-12-08T17:31:11.463Z,0
2017-12-08T17:32:33.236Z,0
2017-12-08T17:33:55.474Z,0
2017-12-08T17:35:17.443Z,0
2017-12-08T17:36:39.408Z,0
2017-12-08T17:38:01.926Z,0
2017-12-08T17:39:24.207Z,0
2017-12-08T17:40:45.993Z,0
2017-12-08T17:42:08.292Z,0
2017-12-08T17:43:30.135Z,0
2017-12-08T17:44:51.576Z,0
2017-12-08T17:46:13.576Z,0
2017-12-08T17:47:35.652Z,0
2017-12-08T17:48:57.996Z,0
2017-12-08T17:50:19.998Z,0
2017-12-08T17:51:42.524Z,0
2017-12-08T17:53:04.257Z,0
2017-12-08T17:54:26.725Z,0
2017-12-08T17:55:48.706Z,0
2017-12-08T17:57:10.746Z,0
2017-12-08T17:58:32.731Z,0
2017-12-08T17:59:54.993Z,0
2017-12-08T18:01:17.269Z,0
2017-12-08T18:02:38.982Z,0
2017-12-08T18:04:01.323Z,0
2017-12-08T18:05:23.635Z,0
2017-12-08T18:06:45.641Z,0
2017-12-08T18:08:08.016Z,0
2017-12-08T18:09:29.986Z,0
2017-12-08T18:10:52.320Z,0
2017-12-08T18:12:14.585Z,0
2017-12-08T18:13:36.208Z,0
2017-12-08T18:14:57.985Z,0
2017-12-08T18:16:19.768Z,0
2017-12-08T18:17:41.480Z,0
2017-12-08T18:19:03.728Z,0
2017-12-08T18:20:25.944Z,0
2017-12-08T18:21:48.023Z,0
2017-12-08T18:23:09.917Z,0
2017-12-08T18:24:31.742Z,0
2017-12-08T18:25:53.550Z,0
2017-12-08T18:27:15.450Z,0
2017-12-08T18:28:37.171Z,0
2017-12-08T18:29:59.027Z,0
2017-12-08T18:31:20.631Z,0
2017-12-08T18:32:42.888Z,0
2017-12-08T18:34:04.904Z,0
2017-12-08T18:35:26.389Z,0
2017-12-08T18:36:48.433Z,0
2017-12-08T18:38:10.415Z,0
2017-12-08T18:39:32.133Z,0
2017-12-08T18:40:54.111Z,0
2017-12-08T18:42:16.115Z,0
2017-12-08T18:43:38.395Z,8
2017-12-08T18:45:00.649Z,8
2017-12-08T18:46:22.949Z,8
2017-12-08T18:47:45.295Z,0
2017-12-08T18:49:07.367Z,0
2017-12-08T18:50:29.499Z,0
2017-12-08T18:51:51.503Z,0
2017-12-08T18:53:13.528Z,0
2017-12-08T18:54:35.832Z,0
2017-12-08T18:55:57.951Z,0
2017-12-08T18:57:20.285Z,0
2017-12-08T18:58:42.983Z,0
2017-12-08T19:00:05.024Z,0
2017-12-08T19:01:27.389Z,0
2017-12-08T19:02:49.407Z,0
2017-12-08T19:04:11.711Z,0
2017-12-08T19:05:33.842Z,0
2017-12-08T19:06:56.179Z,0
2017-12-08T19:08:18.296Z,0
2017-12-08T19:09:40.596Z,0
2017-12-08T19:11:02.655Z,0
2017-12-08T19:12:25.054Z,0
2017-12-08T19:13:46.830Z,0
2017-12-08T19:15:08.611Z,0
2017-12-08T19:16:30.950Z,0
2017-12-08T19:17:53.060Z,0
2017-12-08T19:19:16.006Z,0
2017-12-08T19:20:38.336Z,0
2017-12-08T19:22:00.689Z,0